Time;durP1;ratioP1;P1;durP2;ratioP2;P2;SDS_P1;SDS_P2;PMS_P1;PMS_P2;Temp;Humidity;BMP_temperature;BMP_pressure;BME280_temperature;BME280_humidity;BME280_pressure;Samples;Min_cycle;Max_cycle;Signal;HPM_P1;HPM_P2
2022/02/20 00:01:27;;;;;;;16.98;10.13;;;230.90;2252.80;;;;;;5030704;28;20749;-56
2022/02/20 00:03:53;;;;;;;10.52;8.38;;;231.00;2252.80;;;;;;5030238;28;20033;-54
2022/02/20 00:06:19;;;;;;;12.38;6.82;;;231.10;2252.80;;;;;;5030472;28;20053;-56
2022/02/20 00:08:44;;;;;;;13.07;7.55;;;231.00;2252.80;;;;;;5030585;28;20029;-56
2022/02/20 00:11:10;;;;;;;19.55;10.02;;;231.30;2252.80;;;;;;5030678;28;20029;-55
2022/02/20 00:13:36;;;;;;;30.60;16.55;;;231.30;2252.80;;;;;;5030695;28;20048;-56
2022/02/20 00:16:02;;;;;;;32.97;19.13;;;256.10;2252.80;;;;;;5031116;28;20456;-56
2022/02/20 00:18:27;;;;;;;29.80;18.33;;;256.20;2252.80;;;;;;5050373;28;20056;-56
2022/02/20 00:20:53;;;;;;;26.80;16.83;;;256.10;2252.80;;;;;;5050177;28;20025;-56
2022/02/20 00:23:19;;;;;;;26.02;13.10;;;256.20;2252.80;;;;;;5050362;28;20085;-56
2022/02/20 00:25:45;;;;;;;21.17;13.95;;;256.00;2252.80;;;;;;5050008;28;20107;-56
2022/02/20 00:28:12;;;;;;;22.30;13.65;;;256.00;2252.80;;;;;;5049869;28;20041;-57
2022/02/20 00:30:38;;;;;;;24.35;14.20;;;256.20;2252.80;;;;;;5050214;28;20029;-57
2022/02/20 00:33:04;;;;;;;28.30;16.65;;;256.50;2252.80;;;;;;5049990;28;20033;-56
2022/02/20 00:35:33;;;;;;;31.77;20.40;;;256.50;2252.80;;;;;;5050025;28;20048;-56
2022/02/20 00:37:59;;;;;;;42.03;24.80;;;256.40;2252.80;;;;;;5050076;28;20056;-57
2022/02/20 00:40:25;;;;;;;39.53;23.10;;;256.30;2252.80;;;;;;5049892;28;20562;-57
2022/02/20 00:42:51;;;;;;;40.83;24.65;;;256.20;2252.80;;;;;;5049309;28;20039;-57
2022/02/20 00:45:17;;;;;;;30.33;15.65;;;256.20;2252.80;;;;;;5049944;28;20083;-56
2022/02/20 00:47:44;;;;;;;22.48;12.63;;;256.10;2252.80;;;;;;5049597;28;20075;-56
2022/02/20 00:50:10;;;;;;;28.08;14.77;;;231.20;2252.80;;;;;;5049783;28;20108;-57
2022/02/20 00:52:36;;;;;;;18.05;11.48;;;231.10;2252.80;;;;;;5049860;28;20112;-56
2022/02/20 00:55:02;;;;;;;26.40;15.23;;;231.20;2252.80;;;;;;5049139;28;20116;-58
2022/02/20 00:57:28;;;;;;;20.42;10.70;;;231.10;2252.80;;;;;;5049661;28;20042;-56
2022/02/20 00:59:54;;;;;;;22.30;10.60;;;231.00;2252.80;;;;;;5049507;28;20025;-56
2022/02/20 01:02:20;;;;;;;15.55;8.85;;;231.00;2252.80;;;;;;5046810;28;20485;-56
2022/02/20 01:04:46;;;;;;;15.40;8.57;;;231.10;2252.80;;;;;;5038402;28;20018;-56
2022/02/20 01:07:11;;;;;;;20.13;9.38;;;231.00;2252.80;;;;;;5038235;28;20187;-56
2022/02/20 01:09:37;;;;;;;17.17;9.52;;;231.00;2252.80;;;;;;5051181;28;20029;-55
2022/02/20 01:12:04;;;;;;;20.15;9.00;;;231.00;2252.80;;;;;;5050799;28;20495;-55
2022/02/20 01:14:29;;;;;;;14.85;7.32;;;231.10;2252.80;;;;;;5051099;28;20066;-56
2022/02/20 01:16:55;;;;;;;13.60;6.75;;;231.00;2252.80;;;;;;5050796;28;20415;-55
2022/02/20 01:19:21;;;;;;;16.60;7.00;;;231.10;2252.80;;;;;;5050743;28;20063;-57
2022/02/20 01:21:47;;;;;;;12.15;7.63;;;231.20;2252.80;;;;;;5050995;28;20105;-56
2022/02/20 01:24:14;;;;;;;14.88;6.95;;;231.20;2252.80;;;;;;5050582;28;20040;-57
2022/02/20 01:26:40;;;;;;;14.52;6.43;;;231.30;2252.80;;;;;;5050480;28;20067;-56
2022/02/20 01:29:07;;;;;;;19.48;11.68;;;231.30;2252.80;;;;;;5050878;28;20025;-57
2022/02/20 01:31:33;;;;;;;8.77;5.20;;;256.00;2252.80;;;;;;5050499;28;20082;-56
2022/02/20 01:33:59;;;;;;;14.75;8.48;;;231.20;2227.20;;;;;;5050709;28;20482;-57
2022/02/20 01:36:25;;;;;;;13.70;6.60;;;231.00;2252.80;;;;;;5050130;28;20068;-56
2022/02/20 01:38:51;;;;;;;16.42;8.80;;;231.20;2252.80;;;;;;5050183;28;20387;-57
2022/02/20 01:41:18;;;;;;;18.50;9.30;;;231.20;2252.80;;;;;;5050379;28;20021;-56
2022/02/20 01:43:44;;;;;;;14.63;9.18;;;231.10;2252.80;;;;;;5049129;28;20032;-58
2022/02/20 01:46:09;;;;;;;13.90;6.35;;;231.10;2252.80;;;;;;5050413;28;20353;-55
2022/02/20 01:48:36;;;;;;;8.52;4.65;;;231.00;2252.80;;;;;;5050276;28;20025;-56
2022/02/20 01:51:04;;;;;;;7.88;4.55;;;230.90;2252.80;;;;;;5050050;28;20021;-57
2022/02/20 01:53:29;;;;;;;9.15;5.50;;;230.80;2252.80;;;;;;5049770;28;20025;-56
2022/02/20 01:55:55;;;;;;;12.10;5.18;;;230.90;2252.80;;;;;;5049907;28;20071;-56
2022/02/20 01:58:21;;;;;;;14.93;6.18;;;231.00;2252.80;;;;;;5050411;28;20474;-57
2022/02/20 02:00:47;;;;;;;10.65;4.15;;;230.90;2252.80;;;;;;5050568;28;20075;-57
2022/02/20 02:03:16;;;;;;;7.43;3.50;;;230.90;2252.80;;;;;;5049926;28;20529;-57
2022/02/20 02:05:44;;;;;;;6.72;4.38;;;230.90;2252.80;;;;;;5049722;28;20124;-56
2022/02/20 02:08:11;;;;;;;10.98;4.68;;;231.00;2252.80;;;;;;5049963;28;20044;-56
2022/02/20 02:10:37;;;;;;;8.50;3.90;;;231.00;2252.80;;;;;;5050014;28;20029;-56
2022/02/20 02:13:03;;;;;;;8.38;5.93;;;230.80;2252.80;;;;;;5049773;28;20063;-57
2022/02/20 02:15:28;;;;;;;10.43;5.30;;;230.90;2252.80;;;;;;5049901;28;20025;-56
2022/02/20 02:17:54;;;;;;;12.57;7.22;;;231.00;2252.80;;;;;;5049796;28;20119;-56
2022/02/20 02:20:20;;;;;;;16.60;8.88;;;231.10;2252.80;;;;;;5050059;28;20110;-57
2022/02/20 02:22:46;;;;;;;18.80;9.10;;;231.10;2252.80;;;;;;5049756;28;20028;-56
2022/02/20 02:25:12;;;;;;;10.82;5.97;;;231.20;2252.80;;;;;;5049707;28;20025;-58
2022/02/20 02:27:37;;;;;;;13.23;7.25;;;231.20;2227.20;;;;;;5049910;28;20041;-56
2022/02/20 02:30:07;;;;;;;9.00;6.07;;;231.30;2252.80;;;;;;5049621;28;20021;-56
2022/02/20 02:32:33;;;;;;;11.32;6.22;;;231.30;2227.20;;;;;;5049557;28;20100;-56
2022/02/20 02:34:59;;;;;;;12.38;6.07;;;231.20;2252.80;;;;;;5049802;28;20057;-56
2022/02/20 02:37:25;;;;;;;12.82;6.70;;;231.30;2227.20;;;;;;5049631;28;20029;-56
2022/02/20 02:39:51;;;;;;;16.15;7.03;;;231.20;2227.20;;;;;;5049913;28;20092;-57
2022/02/20 02:42:17;;;;;;;14.57;8.05;;;231.20;2201.60;;;;;;5049893;28;20109;-56
2022/02/20 02:44:44;;;;;;;17.10;10.75;;;231.30;2201.60;;;;;;5049570;28;20531;-56
2022/02/20 02:47:10;;;;;;;17.65;10.32;;;231.30;2227.20;;;;;;5049755;28;20041;-56
2022/02/20 02:49:37;;;;;;;16.23;10.82;;;231.20;2252.80;;;;;;5049548;28;20382;-56
2022/02/20 02:52:05;;;;;;;23.20;10.82;;;231.20;2252.80;;;;;;5049432;28;20043;-56
2022/02/20 02:54:30;;;;;;;17.27;9.57;;;231.20;2252.80;;;;;;5049753;28;20025;-56
2022/02/20 02:56:56;;;;;;;12.48;7.68;;;231.20;2252.80;;;;;;5049383;28;20379;-56
2022/02/20 02:59:22;;;;;;;15.07;8.60;;;231.30;2227.20;;;;;;5049395;28;20033;-56
2022/02/20 03:01:50;;;;;;;17.52;8.90;;;231.20;2252.80;;;;;;5049884;28;20033;-56
2022/02/20 03:04:16;;;;;;;13.13;7.60;;;231.20;2252.80;;;;;;5049545;28;20018;-56
2022/02/20 03:06:42;;;;;;;10.52;5.65;;;231.10;2252.80;;;;;;5052322;28;20068;-56
2022/02/20 03:09:08;;;;;;;18.60;8.52;;;231.30;2227.20;;;;;;5053324;28;20474;-56
2022/02/20 03:11:34;;;;;;;12.00;6.82;;;231.20;2227.20;;;;;;5053028;28;20040;-56
2022/02/20 03:14:01;;;;;;;13.98;6.68;;;231.20;2227.20;;;;;;5053543;28;20025;-56
2022/02/20 03:16:27;;;;;;;11.15;7.30;;;231.20;2252.80;;;;;;5053288;28;20021;-55
2022/02/20 03:18:53;;;;;;;12.00;6.40;;;231.10;2252.80;;;;;;5052968;28;20029;-56
2022/02/20 03:21:18;;;;;;;21.23;15.55;;;231.10;2252.80;;;;;;5053198;28;20079;-56
2022/02/20 03:23:44;;;;;;;21.77;12.48;;;231.00;2252.80;;;;;;5052937;28;20464;-56
2022/02/20 03:26:10;;;;;;;19.70;10.70;;;231.00;2252.80;;;;;;5052794;28;20037;-56
2022/02/20 03:28:36;;;;;;;18.70;11.35;;;231.00;2252.80;;;;;;5052662;28;20025;-57
2022/02/20 03:31:01;;;;;;;24.92;12.55;;;230.90;2252.80;;;;;;5052718;28;20032;-58
2022/02/20 03:33:28;;;;;;;14.88;9.68;;;230.90;2252.80;;;;;;5052894;28;20035;-56
2022/02/20 03:35:54;;;;;;;16.23;10.27;;;230.90;2252.80;;;;;;5052628;28;20485;-56
2022/02/20 03:38:20;;;;;;;26.50;15.52;;;231.00;2252.80;;;;;;5052753;28;20037;-56
2022/02/20 03:40:46;;;;;;;32.38;16.95;;;231.00;2252.80;;;;;;5052581;28;20029;-56
2022/02/20 03:43:12;;;;;;;31.92;19.67;;;231.00;2252.80;;;;;;5052383;28;20025;-57
2022/02/20 03:45:37;;;;;;;30.88;17.58;;;230.90;2252.80;;;;;;5052587;28;20033;-56
2022/02/20 03:48:03;;;;;;;40.35;22.17;;;230.90;2252.80;;;;;;5052171;28;20033;-56
2022/02/20 03:50:29;;;;;;;31.73;16.80;;;231.00;2252.80;;;;;;5052608;28;20379;-56
2022/02/20 03:52:55;;;;;;;21.25;14.02;;;230.90;2252.80;;;;;;5052295;28;20021;-56
2022/02/20 03:55:21;;;;;;;20.77;11.48;;;230.90;2252.80;;;;;;5052512;28;20028;-56
2022/02/20 03:57:47;;;;;;;18.02;8.90;;;230.80;2252.80;;;;;;5052458;28;20052;-56
2022/02/20 04:00:22;;;;;;;29.27;19.23;;;230.90;2252.80;;;;;;5052094;28;20059;-56
2022/02/20 04:02:48;;;;;;;25.45;17.90;;;230.90;2252.80;;;;;;5052304;28;20033;-56
2022/02/20 04:05:15;;;;;;;27.60;17.98;;;230.90;2252.80;;;;;;5051700;28;20025;-56
2022/02/20 04:07:42;;;;;;;19.13;13.45;;;230.90;2252.80;;;;;;5052311;28;20044;-56
2022/02/20 04:10:10;;;;;;;20.92;12.32;;;230.90;2252.80;;;;;;5052292;28;20610;-56
2022/02/20 04:12:37;;;;;;;28.17;16.58;;;230.80;2252.80;;;;;;5051897;28;20495;-56
2022/02/20 04:15:06;;;;;;;23.95;16.35;;;230.80;2252.80;;;;;;5051987;28;20095;-57
2022/02/20 04:17:38;;;;;;;25.35;15.40;;;230.90;2252.80;;;;;;5051328;28;20025;-57
2022/02/20 04:20:05;;;;;;;27.15;16.85;;;231.00;2252.80;;;;;;5051636;28;20036;-56
2022/02/20 04:22:30;;;;;;;24.10;14.00;;;230.90;2252.80;;;;;;5051842;28;20024;-56
2022/02/20 04:24:56;;;;;;;23.17;13.38;;;230.70;2252.80;;;;;;5051788;28;20108;-56
2022/02/20 04:27:22;;;;;;;22.83;13.23;;;230.60;2252.80;;;;;;5051547;28;20383;-58
2022/02/20 04:29:47;;;;;;;23.95;14.25;;;230.70;2252.80;;;;;;5052204;28;20029;-56
2022/02/20 04:32:13;;;;;;;24.10;13.13;;;230.70;2252.80;;;;;;5051692;28;20390;-57
2022/02/20 04:34:39;;;;;;;14.00;8.95;;;230.70;2252.80;;;;;;5051522;28;20025;-57
2022/02/20 04:37:05;;;;;;;12.32;7.18;;;230.80;2252.80;;;;;;5051526;28;20041;-56
2022/02/20 04:39:30;;;;;;;14.48;7.15;;;230.80;2252.80;;;;;;5051659;28;20459;-56
2022/02/20 04:41:58;;;;;;;17.65;8.55;;;230.60;2252.80;;;;;;5051325;28;20104;-57
2022/02/20 04:44:24;;;;;;;14.18;6.93;;;230.60;2252.80;;;;;;5051334;28;20063;-56
2022/02/20 04:46:50;;;;;;;10.35;7.15;;;230.70;2252.80;;;;;;5051262;28;20029;-57
2022/02/20 04:49:16;;;;;;;11.13;6.78;;;230.80;2252.80;;;;;;5050129;28;20017;-57
2022/02/20 04:51:42;;;;;;;10.57;6.13;;;230.80;2252.80;;;;;;5051356;28;20424;-58
2022/02/20 04:54:08;;;;;;;12.98;6.78;;;230.70;2252.80;;;;;;5051331;28;20024;-57
2022/02/20 04:56:33;;;;;;;9.32;6.53;;;230.80;2252.80;;;;;;5051048;28;20021;-57
2022/02/20 04:58:59;;;;;;;12.05;6.75;;;230.60;2252.80;;;;;;5051158;28;20028;-58
2022/02/20 05:01:25;;;;;;;11.88;6.10;;;230.70;2252.80;;;;;;5050890;28;20047;-57
2022/02/20 05:03:52;;;;;;;12.10;7.05;;;230.60;2252.80;;;;;;5051199;28;20033;-58
2022/02/20 05:06:18;;;;;;;11.05;6.65;;;230.40;2252.80;;;;;;5050774;28;20057;-57
2022/02/20 05:08:45;;;;;;;9.63;6.45;;;230.50;2252.80;;;;;;5051047;28;20022;-57
2022/02/20 05:11:10;;;;;;;14.00;7.35;;;230.50;2252.80;;;;;;5051001;28;20028;-57
2022/02/20 05:13:36;;;;;;;19.13;9.55;;;230.50;2252.80;;;;;;5050713;28;20032;-57
2022/02/20 05:16:02;;;;;;;30.42;14.77;;;230.60;2252.80;;;;;;5050764;28;20104;-58
2022/02/20 05:18:28;;;;;;;31.15;17.65;;;230.60;2252.80;;;;;;5050904;28;20036;-57
2022/02/20 05:20:54;;;;;;;36.92;20.38;;;230.60;2252.80;;;;;;5050756;28;20025;-57
2022/02/20 05:23:24;;;;;;;83.70;44.33;;;230.60;2252.80;;;;;;5050850;28;20025;-57
2022/02/20 05:25:51;;;;;;;56.92;29.15;;;230.60;2252.80;;;;;;5050646;28;20028;-57
2022/02/20 05:28:17;;;;;;;69.63;37.38;;;230.70;2252.80;;;;;;5049807;28;20074;-56
2022/02/20 05:30:43;;;;;;;62.58;29.45;;;230.60;2252.80;;;;;;5050406;28;20120;-57
2022/02/20 05:33:09;;;;;;;39.53;20.85;;;230.50;2252.80;;;;;;5050475;28;20025;-56
2022/02/20 05:35:35;;;;;;;45.70;24.25;;;230.50;2252.80;;;;;;5050081;28;20082;-57
2022/02/20 05:38:01;;;;;;;36.95;19.80;;;230.40;2252.80;;;;;;5050679;28;20119;-57
2022/02/20 05:40:27;;;;;;;60.45;34.10;;;230.50;2252.80;;;;;;5050273;28;20076;-56
2022/02/20 05:42:57;;;;;;;26.92;15.60;;;230.50;2252.80;;;;;;5050190;28;20029;-59
2022/02/20 05:45:23;;;;;;;23.63;12.35;;;230.50;2252.80;;;;;;5050163;28;20082;-57
2022/02/20 05:47:49;;;;;;;27.55;15.50;;;205.70;2252.80;;;;;;5050279;28;20033;-56
2022/02/20 05:50:15;;;;;;;21.55;13.85;;;230.40;2252.80;;;;;;5050276;28;20025;-58
2022/02/20 05:52:40;;;;;;;29.48;15.40;;;230.50;2252.80;;;;;;5050275;28;20029;-57
2022/02/20 05:55:07;;;;;;;34.60;19.25;;;230.60;2252.80;;;;;;5050312;28;20025;-57
2022/02/20 05:57:47;;;;;;;30.05;17.35;;;230.50;2252.80;;;;;;5049981;28;20025;-57
2022/02/20 06:00:15;;;;;;;33.45;18.83;;;205.60;2252.80;;;;;;5050112;28;20102;-56
2022/02/20 06:02:41;;;;;;;32.95;19.80;;;230.40;2252.80;;;;;;5050087;28;20013;-56
2022/02/20 06:05:08;;;;;;;34.50;20.52;;;230.40;2252.80;;;;;;5049883;28;20029;-56
2022/02/20 06:07:34;;;;;;;36.63;21.92;;;230.40;2252.80;;;;;;5049769;28;20041;-57
2022/02/20 06:10:01;;;;;;;35.03;22.27;;;230.40;2252.80;;;;;;5041753;28;20080;-57
2022/02/20 06:12:27;;;;;;;46.15;30.35;;;230.50;2252.80;;;;;;5050253;28;20419;-58
2022/02/20 06:14:53;;;;;;;31.25;22.98;;;205.70;2252.80;;;;;;5049875;28;20029;-57
2022/02/20 06:17:18;;;;;;;41.95;28.10;;;230.40;2252.80;;;;;;5050019;28;20024;-57
2022/02/20 06:19:44;;;;;;;33.08;22.73;;;230.40;2252.80;;;;;;5049960;28;20071;-56
2022/02/20 06:22:10;;;;;;;39.67;24.88;;;230.40;2252.80;;;;;;5050061;28;20052;-55
2022/02/20 06:24:35;;;;;;;41.25;23.70;;;205.70;2252.80;;;;;;5049728;28;20021;-56
2022/02/20 06:27:01;;;;;;;38.83;25.10;;;230.40;2252.80;;;;;;5049605;28;20540;-57
2022/02/20 06:29:27;;;;;;;33.28;20.98;;;230.40;2252.80;;;;;;5049874;28;20018;-56
2022/02/20 06:31:53;;;;;;;31.40;21.60;;;205.70;2252.80;;;;;;5049544;28;20078;-56
2022/02/20 06:34:18;;;;;;;37.58;21.23;;;205.70;2252.80;;;;;;5049952;28;20033;-56
2022/02/20 06:36:44;;;;;;;31.33;20.20;;;230.40;2252.80;;;;;;5049432;28;20091;-57
2022/02/20 06:39:10;;;;;;;29.35;17.83;;;230.50;2252.80;;;;;;5042488;28;20120;-56
2022/02/20 06:41:37;;;;;;;44.80;30.40;;;230.60;2252.80;;;;;;5041030;28;20017;-56
2022/02/20 06:44:04;;;;;;;49.15;33.15;;;230.50;2252.80;;;;;;5033606;28;20026;-58
2022/02/20 06:46:30;;;;;;;42.92;25.27;;;230.40;2252.80;;;;;;5033906;28;20578;-56
2022/02/20 06:48:55;;;;;;;45.17;27.60;;;205.60;2252.80;;;;;;5032073;28;20041;-56
2022/02/20 06:51:21;;;;;;;104.78;63.42;;;205.60;2252.80;;;;;;5033542;28;20406;-57
2022/02/20 06:53:47;;;;;;;44.25;28.13;;;230.40;2252.80;;;;;;5034008;28;20527;-58
2022/02/20 06:56:13;;;;;;;28.05;16.55;;;230.40;2252.80;;;;;;5033457;28;20075;-56
2022/02/20 06:58:39;;;;;;;34.22;18.13;;;205.70;2252.80;;;;;;5033584;28;20021;-56
2022/02/20 07:01:05;;;;;;;546.53;336.48;;;230.50;2252.80;;;;;;5033344;28;20101;-56
2022/02/20 07:03:30;;;;;;;31.55;20.30;;;230.60;2252.80;;;;;;5033709;28;20116;-56
2022/02/20 07:05:56;;;;;;;28.30;19.02;;;230.40;2252.80;;;;;;5033200;28;20550;-56
2022/02/20 07:08:22;;;;;;;16.60;11.25;;;230.40;2252.80;;;;;;5040090;28;20060;-58
2022/02/20 07:10:47;;;;;;;36.50;21.50;;;230.40;2252.80;;;;;;5053483;28;20028;-56
2022/02/20 07:13:13;;;;;;;30.27;20.08;;;230.40;2252.80;;;;;;5053028;28;20531;-57
2022/02/20 07:15:39;;;;;;;32.67;22.08;;;230.40;2252.80;;;;;;5053365;28;20023;-56
2022/02/20 07:18:05;;;;;;;39.08;25.92;;;230.60;2252.80;;;;;;5053099;28;20086;-56
2022/02/20 07:20:31;;;;;;;41.20;28.65;;;230.50;2252.80;;;;;;5053107;28;20025;-58
2022/02/20 07:22:56;;;;;;;39.97;27.52;;;230.70;2252.80;;;;;;5047006;28;20029;-57
2022/02/20 07:25:23;;;;;;;50.15;29.98;;;230.60;2252.80;;;;;;5049864;28;20071;-57
2022/02/20 07:27:53;;;;;;;38.38;25.50;;;230.60;2252.80;;;;;;5049189;28;20124;-57
2022/02/20 07:30:20;;;;;;;34.17;23.75;;;230.60;2252.80;;;;;;5033366;28;20025;-57
2022/02/20 07:32:46;;;;;;;32.17;21.65;;;205.70;2252.80;;;;;;5037710;28;20068;-56
2022/02/20 07:35:12;;;;;;;41.20;29.13;;;205.70;2252.80;;;;;;5040152;28;20060;-57
2022/02/20 07:37:38;;;;;;;43.42;30.83;;;205.70;2252.80;;;;;;5041853;28;20112;-57
2022/02/20 07:40:06;;;;;;;38.95;29.67;;;205.70;2252.80;;;;;;5048918;28;20151;-58
2022/02/20 07:42:32;;;;;;;61.80;42.92;;;230.60;2252.80;;;;;;5035961;28;20042;-58
2022/02/20 07:44:57;;;;;;;98.45;68.07;;;230.60;2252.80;;;;;;5032989;28;20025;-57
2022/02/20 07:47:23;;;;;;;76.57;55.20;;;230.70;2252.80;;;;;;5032350;28;20498;-57
2022/02/20 07:49:49;;;;;;;63.50;50.25;;;231.00;2252.80;;;;;;5032739;28;20026;-58
2022/02/20 07:52:15;;;;;;;60.80;42.95;;;230.80;2252.80;;;;;;5031736;28;20487;-57
2022/02/20 07:54:41;;;;;;;37.40;27.05;;;230.90;2252.80;;;;;;5031459;28;20025;-57
2022/02/20 07:57:06;;;;;;;43.78;29.65;;;230.80;2252.80;;;;;;5032471;28;20035;-56
2022/02/20 07:59:32;;;;;;;46.25;30.90;;;230.90;2252.80;;;;;;5032292;28;20030;-57
2022/02/20 08:01:59;;;;;;;39.67;27.10;;;231.10;2252.80;;;;;;5032648;28;20117;-57
2022/02/20 08:04:25;;;;;;;28.15;16.98;;;256.00;2252.80;;;;;;5032133;28;20022;-56
2022/02/20 08:06:52;;;;;;;28.27;18.92;;;256.20;2252.80;;;;;;5032037;28;20045;-56
2022/02/20 08:09:18;;;;;;;28.00;18.73;;;231.30;2252.80;;;;;;5032315;28;20121;-58
2022/02/20 08:11:43;;;;;;;59.30;34.40;;;231.30;2252.80;;;;;;5032032;28;20105;-56
2022/02/20 08:14:09;;;;;;;48.85;31.20;;;231.20;2252.80;;;;;;5040188;28;20096;-56
2022/02/20 08:16:35;;;;;;;27.30;16.85;;;231.20;2252.80;;;;;;5035907;28;20040;-58
2022/02/20 08:19:03;;;;;;;34.13;21.60;;;230.80;2252.80;;;;;;5032209;28;20486;-57
2022/02/20 08:21:29;;;;;;;40.83;25.10;;;230.90;2252.80;;;;;;5031949;28;20068;-55
2022/02/20 08:23:54;;;;;;;39.85;24.80;;;230.90;2252.80;;;;;;5031944;28;20368;-56
2022/02/20 08:26:21;;;;;;;28.45;17.75;;;230.80;2252.80;;;;;;5031833;28;20025;-57
2022/02/20 08:28:48;;;;;;;76.40;56.15;;;230.80;2252.80;;;;;;5032068;28;20029;-57
2022/02/20 08:31:14;;;;;;;54.92;44.42;;;230.80;2252.80;;;;;;5029816;28;20109;-56
2022/02/20 08:33:40;;;;;;;38.85;30.50;;;230.80;2252.80;;;;;;5030478;28;20084;-57
2022/02/20 08:36:09;;;;;;;56.17;41.47;;;230.70;2252.80;;;;;;5030060;28;20060;-55
2022/02/20 08:38:35;;;;;;;44.80;32.05;;;230.60;2252.80;;;;;;5038496;28;20021;-59
2022/02/20 08:41:01;;;;;;;37.78;25.55;;;230.50;2252.80;;;;;;5049911;28;20032;-59
2022/02/20 08:43:27;;;;;;;25.42;19.40;;;230.50;2252.80;;;;;;5049505;28;20383;-59
2022/02/20 08:45:53;;;;;;;48.28;34.80;;;205.70;2252.80;;;;;;5043456;28;20037;-58
2022/02/20 08:48:18;;;;;;;44.28;28.65;;;205.70;2252.80;;;;;;5034571;28;20132;-59
2022/02/20 08:50:44;;;;;;;55.53;35.25;;;230.40;2252.80;;;;;;5030142;28;20108;-58
2022/02/20 08:53:11;;;;;;;34.45;24.67;;;230.40;2252.80;;;;;;5029950;28;20037;-58
2022/02/20 08:55:36;;;;;;;203.88;154.38;;;230.50;2252.80;;;;;;5048188;28;20033;-59
2022/02/20 08:58:03;;;;;;;701.40;514.38;;;230.60;2252.80;;;;;;5049028;28;20025;-59
2022/02/20 09:00:29;;;;;;;468.27;320.40;;;230.60;2252.80;;;;;;5049741;28;20429;-58
2022/02/20 09:02:55;;;;;;;291.20;205.10;;;230.60;2252.80;;;;;;5049305;28;20036;-59
2022/02/20 09:05:21;;;;;;;46.17;30.35;;;230.80;2252.80;;;;;;5049511;28;20045;-58
2022/02/20 09:07:47;;;;;;;17.83;13.25;;;230.70;2252.80;;;;;;5036153;28;20041;-58
2022/02/20 09:10:13;;;;;;;49.20;32.95;;;230.80;2252.80;;;;;;5029331;28;20025;-59
2022/02/20 09:12:39;;;;;;;16.75;12.13;;;230.70;2252.80;;;;;;5029605;28;20030;-59
2022/02/20 09:15:07;;;;;;;18.95;11.75;;;230.60;2252.80;;;;;;5034209;28;20030;-59
2022/02/20 09:17:34;;;;;;;32.55;19.85;;;230.60;2252.80;;;;;;5037649;28;20014;-59
2022/02/20 09:20:01;;;;;;;66.00;39.42;;;230.80;2252.80;;;;;;5038958;28;20028;-58
2022/02/20 09:22:26;;;;;;;75.22;42.10;;;230.90;2252.80;;;;;;5028647;28;20107;-58
2022/02/20 09:24:52;;;;;;;135.50;73.45;;;230.90;2252.80;;;;;;5031923;28;20460;-58
2022/02/20 09:27:18;;;;;;;137.38;79.20;;;230.90;2252.80;;;;;;5039759;28;20040;-58
2022/02/20 09:29:44;;;;;;;94.20;56.03;;;230.90;2252.80;;;;;;5037563;28;20025;-60
2022/02/20 09:32:10;;;;;;;60.75;37.75;;;230.90;2252.80;;;;;;5039171;28;20074;-59
2022/02/20 09:34:36;;;;;;;68.60;43.10;;;230.80;2252.80;;;;;;5038647;28;20079;-57
2022/02/20 09:37:03;;;;;;;44.30;28.42;;;230.90;2252.80;;;;;;5037413;28;20040;-59
2022/02/20 09:39:29;;;;;;;46.25;29.33;;;230.90;2252.80;;;;;;5039070;28;20021;-58
2022/02/20 09:41:57;;;;;;;49.92;31.80;;;230.90;2252.80;;;;;;5044433;28;20074;-59
2022/02/20 09:44:23;;;;;;;63.60;37.10;;;230.70;2252.80;;;;;;5048697;28;20017;-59
2022/02/20 09:46:49;;;;;;;66.10;41.70;;;230.80;2252.80;;;;;;5048492;28;20029;-59
2022/02/20 09:49:14;;;;;;;70.10;50.00;;;230.90;2252.80;;;;;;5048638;28;20029;-58
2022/02/20 09:51:40;;;;;;;75.72;50.05;;;230.90;2252.80;;;;;;5048990;28;20028;-59
2022/02/20 09:54:06;;;;;;;77.72;54.88;;;230.90;2252.80;;;;;;5048605;28;20196;-59
2022/02/20 09:56:32;;;;;;;78.72;51.55;;;230.90;2252.80;;;;;;5048539;28;20171;-59
2022/02/20 09:58:58;;;;;;;79.05;53.55;;;230.80;2252.80;;;;;;5048582;28;20063;-60
2022/02/20 10:01:24;;;;;;;77.18;55.22;;;230.70;2252.80;;;;;;5048025;28;20029;-58
2022/02/20 10:03:50;;;;;;;94.60;72.93;;;230.70;2252.80;;;;;;5048700;28;20036;-58
2022/02/20 10:06:26;;;;;;;100.53;65.25;;;230.80;2252.80;;;;;;5048084;28;20064;-59
2022/02/20 10:08:54;;;;;;;93.10;60.45;;;230.80;2252.80;;;;;;5048319;28;20044;-59
2022/02/20 10:11:21;;;;;;;88.05;62.25;;;230.60;2252.80;;;;;;5048548;28;20155;-59
2022/02/20 10:13:56;;;;;;;97.97;68.80;;;230.70;2252.80;;;;;;5047655;28;20478;-59
2022/02/20 10:16:27;;;;;;;105.10;70.25;;;230.40;2252.80;;;;;;5048681;28;20021;-58
2022/02/20 10:18:55;;;;;;;74.65;52.65;;;230.50;2252.80;;;;;;5048170;28;20106;-59
2022/02/20 10:21:29;;;;;;;67.88;51.85;;;205.70;2252.80;;;;;;5045950;28;20045;-57
2022/02/20 10:24:03;;;;;;;65.00;47.70;;;205.70;2252.80;;;;;;5036295;28;20140;-59
2022/02/20 10:26:29;;;;;;;65.30;50.13;;;205.60;2252.80;;;;;;5035659;28;20045;-58
2022/02/20 10:28:59;;;;;;;78.50;53.55;;;205.40;2252.80;;;;;;5035505;28;20107;-58
2022/02/20 10:31:45;;;;;;;76.97;50.65;;;205.70;2252.80;;;;;;5037215;28;20024;-58
2022/02/20 10:34:30;;;;;;;83.53;57.42;;;205.50;2252.80;;;;;;5037449;28;20060;-59
2022/02/20 10:36:57;;;;;;;76.60;52.67;;;230.60;2252.80;;;;;;5037742;28;20032;-58
2022/02/20 10:39:31;;;;;;;83.00;57.75;;;230.40;2252.80;;;;;;5035910;28;20033;-59
2022/02/20 10:42:19;;;;;;;98.05;70.47;;;230.60;2252.80;;;;;;5032375;28;20102;-58
2022/02/20 10:44:59;;;;;;;79.07;55.22;;;230.90;2252.80;;;;;;5032816;28;20018;-60
2022/02/20 10:47:25;;;;;;;71.60;46.78;;;230.60;2252.80;;;;;;5039651;28;20078;-58
2022/02/20 10:49:51;;;;;;;60.53;44.35;;;230.70;2252.80;;;;;;5042436;28;20024;-59
2022/02/20 10:52:25;;;;;;;44.55;33.67;;;231.00;2252.80;;;;;;5028364;28;20025;-59
2022/02/20 10:54:59;;;;;;;45.78;34.45;;;230.50;2252.80;;;;;;5042641;28;20049;-58
2022/02/20 10:57:33;;;;;;;49.45;33.58;;;230.70;2252.80;;;;;;5044254;28;20025;-58
2022/02/20 10:59:58;;;;;;;41.47;32.72;;;230.70;2252.80;;;;;;5044661;28;20037;-60
2022/02/20 11:02:24;;;;;;;55.83;40.33;;;230.70;2252.80;;;;;;5040471;28;20080;-59
2022/02/20 11:04:51;;;;;;;60.22;40.28;;;230.80;2252.80;;;;;;5037740;28;20017;-59
2022/02/20 11:07:17;;;;;;;53.92;37.95;;;231.20;2252.80;;;;;;5037669;28;20053;-58
2022/02/20 11:09:44;;;;;;;38.90;27.73;;;231.30;2252.80;;;;;;5036428;28;20048;-59
2022/02/20 11:12:12;;;;;;;86.03;60.38;;;231.20;2252.80;;;;;;5038244;28;20049;-58
2022/02/20 11:14:38;;;;;;;74.45;52.50;;;256.10;2252.80;;;;;;5037857;28;20403;-57
2022/02/20 11:17:06;;;;;;;60.92;42.75;;;256.20;2252.80;;;;;;5036315;28;20499;-59
2022/02/20 11:19:35;;;;;;;35.35;26.83;;;256.20;2252.80;;;;;;5037884;28;20499;-58
2022/02/20 11:22:02;;;;;;;48.00;32.75;;;231.30;2252.80;;;;;;5038318;28;20025;-60
2022/02/20 11:24:30;;;;;;;59.20;42.42;;;256.00;2252.80;;;;;;5036571;28;20108;-59
2022/02/20 11:27:03;;;;;;;72.15;51.63;;;256.00;2252.80;;;;;;5039202;28;20068;-60
2022/02/20 11:29:30;;;;;;;79.57;56.17;;;256.00;2252.80;;;;;;5039936;28;20021;-58
2022/02/20 11:31:57;;;;;;;125.18;88.82;;;231.10;2252.80;;;;;;5046108;28;20372;-58
2022/02/20 11:34:24;;;;;;;193.32;126.80;;;231.20;2252.80;;;;;;5050896;28;20017;-59
2022/02/20 11:36:52;;;;;;;145.63;104.25;;;230.90;2252.80;;;;;;5051000;28;20018;-59
2022/02/20 11:39:19;;;;;;;136.85;93.75;;;231.10;2252.80;;;;;;5051294;28;20170;-58
2022/02/20 11:42:15;;;;;;;105.45;75.07;;;230.90;2252.80;;;;;;5051810;28;20017;-59
2022/02/20 11:45:06;;;;;;;160.60;118.28;;;230.90;2252.80;;;;;;5052919;28;20441;-61
2022/02/20 11:47:34;;;;;;;108.82;78.03;;;231.10;2252.80;;;;;;5050321;28;20132;-59
2022/02/20 11:50:15;;;;;;;163.88;118.72;;;231.20;2252.80;;;;;;5050345;28;20124;-58
2022/02/20 11:52:56;;;;;;;178.55;129.43;;;231.30;2252.80;;;;;;5050314;28;20028;-58
2022/02/20 11:55:29;;;;;;;177.15;131.55;;;256.10;2252.80;;;;;;5050342;28;20136;-58
2022/02/20 12:00:39;;;;;;;;;;;231.30;2252.80;;;;;;5050680;28;20386;-58
2022/02/20 12:03:18;;;;;;;165.55;119.70;;;231.20;2252.80;;;;;;5041364;28;19920;-58